Time;durP1;ratioP1;P1;durP2;ratioP2;P2;SDS_P1;SDS_P2;PMS_P1;PMS_P2;Temp;Humidity;BMP_temperature;BMP_pressure;BME280_temperature;BME280_humidity;BME280_pressure;Samples;Min_cycle;Max_cycle;Signal;HPM_P1;HPM_P2
2022/09/26 00:04:21;;;;;;;9.02;6.18;;;;;;;10.48;72.69;97513.25;10291105;28;20033;-64
2022/09/26 00:09:21;;;;;;;8.48;5.82;;;;;;;10.57;72.00;97509.75;10290830;28;20089;-63
2022/09/26 00:14:24;;;;;;;8.55;6.22;;;;;;;10.65;72.09;97497.59;10295684;28;20065;-64
2022/09/26 00:19:23;;;;;;;10.30;6.63;;;;;;;10.75;71.39;97488.03;10313954;28;20066;-64
2022/09/26 00:24:22;;;;;;;9.32;5.88;;;;;;;10.74;70.94;97471.59;10298846;28;20508;-63
2022/09/26 00:29:21;;;;;;;7.68;5.88;;;;;;;10.84;70.69;97468.06;10298347;28;20865;-64
2022/09/26 00:34:20;;;;;;;10.60;6.28;;;;;;;10.94;70.35;97489.69;10298256;28;20109;-64
2022/09/26 00:39:19;;;;;;;10.30;6.45;;;;;;;10.88;71.02;97483.66;10298235;28;20100;-64
2022/09/26 00:44:36;;;;;;;10.40;7.55;;;;;;;10.85;70.78;97492.31;10297919;28;20109;-63
2022/09/26 00:49:41;;;;;;;8.88;6.97;;;;;;;10.60;71.70;97474.25;10297658;28;20131;-63
2022/09/26 00:54:44;;;;;;;8.93;6.80;;;;;;;10.73;71.64;97475.06;10297608;28;20057;-64
2022/09/26 00:59:47;;;;;;;9.10;6.45;;;;;;;10.84;70.86;97480.19;10297649;28;20453;-64
2022/09/26 01:04:47;;;;;;;9.52;6.28;;;;;;;10.86;71.45;97455.06;10297445;28;20450;-64
2022/09/26 01:09:47;;;;;;;9.32;5.80;;;;;;;10.94;70.96;97468.03;10296733;28;20093;-64
2022/09/26 01:14:49;;;;;;;10.57;7.22;;;;;;;10.96;70.78;97468.88;10296766;28;20057;-64
2022/09/26 01:19:57;;;;;;;12.00;8.45;;;;;;;11.02;70.83;97480.09;10311957;28;20069;-64
2022/09/26 01:25:27;;;;;;;12.98;9.90;;;;;;;11.02;70.79;97472.31;10296085;28;20061;-65
2022/09/26 01:30:40;;;;;;;10.70;8.67;;;;;;;11.07;70.90;97453.25;10296302;28;20066;-64
2022/09/26 01:36:00;;;;;;;10.90;8.43;;;;;;;11.21;70.29;97457.44;10296287;28;20061;-64
2022/09/26 01:41:02;;;;;;;12.95;9.57;;;;;;;11.30;70.14;97433.13;10295903;28;20477;-64
2022/09/26 01:46:39;;;;;;;11.73;8.27;;;;;;;11.40;70.13;97447.75;10295840;28;20061;-64
2022/09/26 01:51:51;;;;;;;12.98;7.80;;;;;;;11.48;70.32;97449.41;10294295;28;20068;-64
2022/09/26 01:56:53;;;;;;;9.77;7.13;;;;;;;11.45;69.82;97434.72;10295190;28;20072;-63
2022/09/26 02:01:57;;;;;;;12.13;7.65;;;;;;;11.48;69.98;97444.22;10294889;28;20081;-63
2022/09/26 02:07:03;;;;;;;9.77;7.35;;;;;;;11.64;69.85;97454.47;10294717;28;20560;-64
2022/09/26 02:12:05;;;;;;;9.40;6.47;;;;;;;11.76;69.50;97445.69;10295242;28;20087;-63
2022/09/26 02:17:16;;;;;;;9.55;6.85;;;;;;;11.86;70.04;97436.88;10309256;28;20073;-62
2022/09/26 02:22:16;;;;;;;9.35;7.22;;;;;;;11.93;69.59;97431.63;10294470;28;20065;-62
2022/09/26 02:27:14;;;;;;;8.73;6.60;;;;;;;12.04;68.95;97440.13;10293835;28;20072;-62
2022/09/26 02:32:18;;;;;;;11.25;7.28;;;;;;;12.08;68.52;97421.88;10293987;28;20026;-62
2022/09/26 02:37:20;;;;;;;9.15;6.05;;;;;;;12.25;68.34;97421.69;10292881;28;20065;-63
2022/09/26 02:42:32;;;;;;;9.82;6.47;;;;;;;12.35;67.71;97422.44;10293461;28;20065;-62
2022/09/26 02:47:50;;;;;;;8.93;5.72;;;;;;;12.22;67.16;97377.47;10308222;28;20516;-62
2022/09/26 02:53:13;;;;;;;8.90;5.65;;;;;;;12.57;66.84;97406.53;10292811;28;20061;-62
2022/09/26 02:58:15;;;;;;;9.80;6.90;;;;;;;12.66;66.29;97414.22;10293001;28;20476;-62
2022/09/26 03:03:21;;;;;;;13.23;6.57;;;;;;;12.45;66.18;97365.94;10292791;28;20501;-62
2022/09/26 03:08:24;;;;;;;11.18;7.07;;;;;;;12.76;65.64;97404.50;10291512;28;20155;-62
2022/09/26 03:13:25;;;;;;;10.05;6.70;;;;;;;12.73;65.83;97395.84;10292646;28;20562;-63
2022/09/26 03:18:30;;;;;;;11.77;6.82;;;;;;;12.80;65.50;97386.22;10291972;28;20513;-63
2022/09/26 03:23:29;;;;;;;8.98;6.10;;;;;;;12.89;65.06;97385.22;10291937;28;20057;-63
2022/09/26 03:28:29;;;;;;;9.77;6.25;;;;;;;13.05;65.22;97389.28;10292192;28;20100;-63
2022/09/26 03:33:28;;;;;;;12.13;6.97;;;;;;;13.03;65.11;97388.44;10291958;28;20072;-63
2022/09/26 03:38:27;;;;;;;10.80;7.68;;;;;;;13.11;64.90;97370.06;10291549;28;20036;-63
2022/09/26 03:43:26;;;;;;;17.08;7.90;;;;;;;13.07;65.69;97364.06;10291483;28;20072;-63
2022/09/26 03:48:25;;;;;;;14.90;9.02;;;;;;;12.99;66.04;97358.13;10306495;28;20065;-63
2022/09/26 03:53:24;;;;;;;28.08;12.95;;;;;;;12.57;66.37;97334.50;10291180;28;20021;-64
2022/09/26 03:58:23;;;;;;;20.20;11.75;;;;;;;12.76;66.38;97353.28;10291796;28;20017;-64
2022/09/26 04:03:23;;;;;;;12.20;8.35;;;;;;;12.78;66.09;97337.66;10293576;28;20029;-64
2022/09/26 04:08:22;;;;;;;;;;;;;;;13.09;65.63;97362.31;10294114;28;20555;-63
2022/09/26 04:13:21;;;;;;;13.45;8.02;;;;;;;12.99;65.63;97336.44;10293536;28;20442;-63
2022/09/26 04:18:20;;;;;;;13.15;7.72;;;;;;;12.55;65.68;97271.19;10292659;28;20065;-64
2022/09/26 04:23:19;;;;;;;15.85;7.57;;;;;;;13.17;66.09;97369.13;10293934;28;20118;-63
2022/09/26 04:28:18;;;;;;;14.82;7.22;;;;;;;13.21;66.27;97381.19;10293850;28;20065;-64
2022/09/26 04:33:17;;;;;;;14.65;7.55;;;;;;;13.28;66.25;97374.97;10293295;28;20369;-64
2022/09/26 04:38:17;;;;;;;13.30;7.93;;;;;;;13.33;66.59;97373.19;10308236;28;20034;-64
2022/09/26 04:43:16;;;;;;;11.10;7.20;;;;;;;13.32;66.09;97376.66;10293277;28;20062;-64
2022/09/26 04:48:15;;;;;;;13.73;7.75;;;;;;;13.42;65.76;97378.22;10290204;28;20073;-65
2022/09/26 04:53:16;;;;;;;20.20;7.78;;;;;;;13.52;65.48;97363.28;10289774;28;20116;-65
2022/09/26 04:58:16;;;;;;;21.02;8.50;;;;;;;13.64;65.02;97357.00;10294075;28;20065;-63
2022/09/26 05:03:16;;;;;;;21.88;9.05;;;;;;;13.86;64.86;97366.09;10296982;28;20069;-64
2022/09/26 05:08:16;;;;;;;16.33;7.72;;;;;;;13.96;64.56;97369.34;10295522;28;20730;-64
2022/09/26 05:13:15;;;;;;;20.02;8.45;;;;;;;14.08;64.14;97365.66;10311072;28;20501;-64
2022/09/26 05:18:13;;;;;;;26.17;12.98;;;;;;;13.93;63.82;97336.38;10296191;28;20609;-64
2022/09/26 05:26:18;;;;;;;26.50;9.40;;;;;;;14.11;63.51;97369.06;10307023;28;20409;-64
2022/09/26 05:28:34;;;;;;;26.77;11.70;;;;;;;14.15;63.56;97352.44;10285629;28;20118;-63
2022/09/26 05:33:35;;;;;;;25.13;10.52;;;;;;;14.35;63.73;97364.19;10307714;28;20053;-63
2022/09/26 05:38:34;;;;;;;23.30;10.20;;;;;;;14.51;63.99;97355.13;10269473;28;20066;-64
2022/09/26 05:43:33;;;;;;;21.13;9.65;;;;;;;14.57;64.07;97341.94;10267254;28;20109;-63
2022/09/26 05:48:34;;;;;;;24.50;10.27;;;;;;;14.88;63.24;97349.03;10263454;28;20073;-65
2022/09/26 05:53:33;;;;;;;24.10;10.63;;;;;;;14.87;62.06;97336.00;10293817;28;20406;-64
2022/09/26 05:58:34;;;;;;;;;;;;;;;15.17;62.43;97350.06;10293176;28;20520;-64
2022/09/26 06:03:34;;;;;;;24.38;10.40;;;;;;;15.16;61.51;97349.22;10291367;28;19959;-63
2022/09/26 06:08:34;;;;;;;22.95;10.55;;;;;;;15.39;61.64;97361.69;10290604;28;20093;-64
2022/09/26 06:13:34;;;;;;;20.45;9.77;;;;;;;15.59;59.21;97361.13;10289987;28;20074;-63
2022/09/26 06:18:37;;;;;;;36.58;12.32;;;;;;;15.85;58.72;97349.09;10293582;28;20073;-64
2022/09/26 06:23:36;;;;;;;27.38;11.25;;;;;;;16.17;59.51;97344.72;10293270;28;20069;-64
2022/09/26 06:28:35;;;;;;;34.10;12.48;;;;;;;16.51;60.04;97342.78;10293236;28;20061;-63
2022/09/26 06:33:34;;;;;;;29.23;11.70;;;;;;;16.81;59.87;97332.22;10293685;28;20066;-64
2022/09/26 06:38:33;;;;;;;;;;;;;;;17.08;56.12;97330.47;10295018;28;20029;-64
2022/09/26 06:43:32;;;;;;;10.03;5.80;;;;;;;17.28;54.36;97319.28;10295569;28;19952;-61
2022/09/26 06:48:31;;;;;;;6.13;3.80;;;;;;;17.69;50.03;97308.22;10293066;28;20065;-62
2022/09/26 06:53:31;;;;;;;7.85;4.20;;;;;;;18.33;48.68;97339.09;10308842;28;20037;-62
2022/09/26 06:58:30;;;;;;;7.18;4.53;;;;;;;18.20;46.94;97236.31;10294477;28;20065;-62
2022/09/26 07:03:29;;;;;;;5.88;3.70;;;;;;;18.89;44.98;97298.34;10298252;28;20053;-63
2022/09/26 07:08:29;;;;;;;7.78;3.40;;;;;;;19.20;43.72;97305.78;10298006;28;20799;-63
2022/09/26 07:13:28;;;;;;;4.45;2.95;;;;;;;19.60;42.65;97309.34;10297170;28;20068;-64
2022/09/26 07:18:27;;;;;;;6.35;2.88;;;;;;;19.83;41.74;97311.78;10295745;28;20062;-66
2022/09/26 07:23:26;;;;;;;6.05;3.47;;;;;;;19.53;41.29;97223.66;10292423;28;20026;-65
2022/09/26 07:28:25;;;;;;;7.40;3.10;;;;;;;20.14;40.05;97299.00;10294261;28;20108;-64
2022/09/26 07:33:24;;;;;;;5.55;3.17;;;;;;;20.12;39.52;97300.84;10296528;28;20057;-65
2022/09/26 07:38:24;;;;;;;4.53;2.97;;;;;;;20.04;39.32;97295.94;10295654;28;20112;-62
2022/09/26 07:43:23;;;;;;;9.40;3.60;;;;;;;20.10;39.09;97292.19;10295181;28;20068;-63
2022/09/26 07:53:40;;;;;;;5.38;3.13;;;;;;;20.11;39.40;97291.25;10296449;28;20065;-63
2022/09/26 07:58:40;;;;;;;10.00;3.40;;;;;;;20.13;38.55;97282.34;10295535;28;20072;-63
2022/09/26 08:03:41;;;;;;;4.35;3.00;;;;;;;20.04;38.68;97266.97;10293123;28;20057;-62
2022/09/26 08:08:42;;;;;;;5.72;3.00;;;;;;;20.10;38.82;97265.84;10291321;28;20085;-63
2022/09/26 08:13:42;;;;;;;5.80;3.15;;;;;;;20.37;38.71;97279.47;10292452;28;20075;-63
2022/09/26 08:18:41;;;;;;;6.35;3.13;;;;;;;20.53;37.85;97261.16;10251626;28;20070;-63
2022/09/26 08:23:40;;;;;;;4.32;2.85;;;;;;;20.85;37.28;97236.69;10266306;28;20412;-63
2022/09/26 08:28:39;;;;;;;4.00;2.90;;;;;;;21.45;36.85;97252.09;10291209;28;20084;-63
2022/09/26 08:33:39;;;;;;;5.03;2.97;;;;;;;21.79;36.43;97242.38;10289549;28;20076;-62
2022/09/26 08:38:38;;;;;;;2.90;2.65;;;;;;;22.10;35.41;97214.28;10299733;28;20072;-62
2022/09/26 08:43:54;;;;;;;3.88;2.92;;;;;;;22.50;34.55;97207.56;10299595;28;20041;-62
2022/09/26 08:49:16;;;;;;;7.13;2.67;;;;;;;22.97;34.07;97226.91;10298032;28;20151;-63
2022/09/26 08:54:19;;;;;;;7.38;4.20;;;;;;;23.36;34.26;97234.25;10298695;28;20066;-63
2022/09/26 08:59:28;;;;;;;3.28;2.45;;;;;;;23.71;33.85;97235.72;10299153;28;20069;-63
2022/09/26 09:04:58;;;;;;;3.65;2.90;;;;;;;24.06;32.80;97223.72;10299182;28;20474;-63
2022/09/26 09:10:18;;;;;;;3.63;3.00;;;;;;;24.20;31.86;97214.06;10294241;28;20089;-63
2022/09/26 09:15:39;;;;;;;4.63;3.28;;;;;;;24.38;32.11;97212.00;10311597;28;20069;-64
2022/09/26 09:21:05;;;;;;;4.95;3.20;;;;;;;24.37;31.44;97202.34;10296443;28;20573;-64
2022/09/26 09:26:13;;;;;;;3.63;2.90;;;;;;;24.34;32.33;97203.41;10297705;28;20061;-65
2022/09/26 09:31:14;;;;;;;4.33;2.80;;;;;;;24.24;32.89;97197.03;10313200;28;20074;-65
2022/09/26 09:36:39;;;;;;;5.70;2.70;;;;;;;24.03;32.88;97175.38;10313292;28;20065;-66
2022/09/26 09:41:47;;;;;;;4.30;2.75;;;;;;;24.04;32.53;97185.00;10297608;28;20453;-64
2022/09/26 09:46:49;;;;;;;5.07;2.80;;;;;;;23.98;32.80;97177.44;10297228;28;20477;-64
2022/09/26 09:52:06;;;;;;;5.72;3.33;;;;;;;23.96;33.15;97184.63;10297655;28;20072;-65
2022/09/26 09:57:24;;;;;;;4.63;3.40;;;;;;;24.06;33.61;97177.81;10297027;28;20092;-65
2022/09/26 10:02:50;;;;;;;4.22;3.08;;;;;;;24.23;33.69;97174.94;10299559;28;20057;-64
2022/09/26 10:07:56;;;;;;;9.00;3.08;;;;;;;24.35;33.33;97165.31;10294423;28;20129;-65
2022/09/26 10:12:55;;;;;;;4.22;2.78;;;;;;;24.72;33.44;97183.25;10298973;28;20045;-64
2022/09/26 10:18:04;;;;;;;6.68;3.13;;;;;;;25.00;32.79;97179.59;10299732;28;20783;-64
2022/09/26 10:23:12;;;;;;;5.80;2.80;;;;;;;25.19;32.23;97169.41;10298909;28;20473;-64
2022/09/26 10:28:41;;;;;;;5.57;3.13;;;;;;;25.56;32.25;97158.88;10298139;28;20061;-64
2022/09/26 10:33:43;;;;;;;4.03;3.13;;;;;;;26.01;31.84;97161.81;10298510;28;20073;-63
2022/09/26 10:44:33;;;;;;;3.58;2.90;;;;;;;25.98;30.76;97147.91;10299726;28;20042;-63
2022/09/26 10:50:04;;;;;;;5.10;2.88;;;;;;;25.79;31.30;97124.50;10298755;28;20069;-63
2022/09/26 10:55:14;;;;;;;4.82;3.15;;;;;;;25.56;31.19;97128.81;10298479;28;20073;-63
2022/09/26 11:00:20;;;;;;;4.55;2.78;;;;;;;25.40;30.94;97110.41;10296540;28;20111;-63
2022/09/26 11:10:40;;;;;;;2.85;2.45;;;;;;;25.35;31.29;97101.94;10295078;28;20688;-63
2022/09/26 11:15:41;;;;;;;4.05;2.80;;;;;;;25.42;31.47;97066.00;10294648;28;20057;-63
2022/09/26 11:20:50;;;;;;;4.45;2.47;;;;;;;25.67;31.08;97079.25;10293820;28;20076;-63
2022/09/26 11:25:59;;;;;;;3.10;2.80;;;;;;;25.92;30.65;97074.75;10292976;28;20057;-65
2022/09/26 11:31:07;;;;;;;6.95;3.45;;;;;;;26.29;31.51;97064.06;10292177;28;20528;-64
2022/09/26 11:36:40;;;;;;;4.50;2.80;;;;;;;26.68;31.64;97051.34;10292408;28;20065;-65
2022/09/26 11:41:45;;;;;;;12.18;2.90;;;;;;;26.42;30.20;97050.66;10292291;28;20062;-65
2022/09/26 11:47:12;;;;;;;3.95;2.72;;;;;;;26.17;31.28;97063.16;10293685;28;20061;-65
2022/09/26 11:52:49;;;;;;;6.40;3.08;;;;;;;26.44;31.33;97038.97;10292329;28;20567;-65
2022/09/26 11:57:53;;;;;;;6.68;2.60;;;;;;;26.60;30.25;97045.75;10291371;28;20065;-66
2022/09/26 12:03:18;;;;;;;5.45;3.00;;;;;;;26.59;30.44;97039.59;10293059;28;20080;-66
2022/09/26 12:08:39;;;;;;;3.00;2.30;;;;;;;26.78;30.53;97041.66;10293337;28;20453;-66
2022/09/26 12:14:15;;;;;;;3.72;2.30;;;;;;;26.67;30.49;97033.66;10301336;28;20061;-65
2022/09/26 12:19:28;;;;;;;5.32;2.53;;;;;;;26.68;30.35;97019.41;10312650;28;20141;-65
2022/09/26 12:24:44;;;;;;;2.92;2.33;;;;;;;26.85;30.57;96995.00;10299794;28;20118;-66
2022/09/26 12:30:15;;;;;;;3.50;2.47;;;;;;;27.03;29.75;96981.19;10298642;28;20077;-66
2022/09/26 12:35:44;;;;;;;3.13;2.20;;;;;;;27.50;29.78;97001.34;10295435;28;20081;-66
2022/09/26 12:40:49;;;;;;;3.60;2.20;;;;;;;27.77;30.10;96992.88;10275231;28;20088;-66
2022/09/26 12:46:07;;;;;;;5.50;2.33;;;;;;;27.89;30.14;96995.50;10293262;28;20072;-66
2022/09/26 12:51:19;;;;;;;3.85;2.45;;;;;;;27.96;30.53;96991.34;10294254;28;20069;-66
2022/09/26 12:56:36;;;;;;;4.15;2.30;;;;;;;27.94;29.44;96966.63;10296840;28;20069;-66
2022/09/26 13:01:41;;;;;;;2.78;2.25;;;;;;;28.03;30.38;96976.50;10296384;28;20069;-66
2022/09/26 13:06:47;;;;;;;4.80;2.28;;;;;;;28.29;30.40;96960.13;10297006;28;20081;-64
2022/09/26 13:11:52;;;;;;;4.55;2.08;;;;;;;28.38;29.07;96946.84;10297195;28;20485;-66
2022/09/26 13:17:19;;;;;;;3.58;2.13;;;;;;;28.11;29.13;96936.75;10296691;28;20094;-64
2022/09/26 13:22:36;;;;;;;5.78;2.47;;;;;;;28.22;30.97;96933.13;10296558;28;20061;-66
2022/09/26 13:27:40;;;;;;;3.53;2.45;;;;;;;28.11;30.74;96902.06;10296503;28;20054;-63
2022/09/26 13:32:59;;;;;;;3.95;2.53;;;;;;;28.12;30.18;96909.06;10296360;28;20065;-63
2022/09/26 13:38:34;;;;;;;5.18;2.80;;;;;;;27.92;30.78;96924.09;10295934;28;20065;-64
2022/09/26 13:44:03;;;;;;;4.50;2.90;;;;;;;27.66;31.46;96928.09;10295947;28;20129;-63
2022/09/26 13:49:16;;;;;;;6.45;2.55;;;;;;;27.33;31.34;96928.09;10295796;28;20563;-65
2022/09/26 13:54:23;;;;;;;6.35;2.60;;;;;;;27.28;31.90;96932.09;10295811;28;20076;-65
2022/09/26 13:59:33;;;;;;;4.45;2.38;;;;;;;27.09;32.20;96920.28;10295136;28;20065;-65
2022/09/26 14:04:34;;;;;;;6.32;2.83;;;;;;;26.96;32.55;96933.75;10294982;28;20457;-65
2022/09/26 14:09:41;;;;;;;4.65;2.63;;;;;;;26.81;32.38;96929.59;10311372;28;20070;-65
2022/09/26 14:14:46;;;;;;;4.32;2.95;;;;;;;26.40;32.58;96907.16;10295894;28;20065;-65
2022/09/26 14:19:48;;;;;;;6.30;3.28;;;;;;;26.20;33.23;96923.81;10296496;28;20072;-65
2022/09/26 14:24:49;;;;;;;8.60;2.80;;;;;;;25.59;33.69;96898.25;10296292;28;20073;-65
2022/09/26 14:30:28;;;;;;;5.88;3.05;;;;;;;25.50;33.73;96920.19;10295684;28;20088;-65
2022/09/26 14:35:37;;;;;;;3.70;3.00;;;;;;;25.28;34.30;96923.59;10295585;28;20065;-65
2022/09/26 14:40:36;;;;;;;5.13;3.20;;;;;;;25.02;34.46;96914.88;10294017;28;20493;-63
2022/09/26 14:45:35;;;;;;;4.80;3.60;;;;;;;24.76;34.61;96924.72;10292167;28;20611;-63
2022/09/26 14:51:00;;;;;;;7.10;3.75;;;;;;;24.53;34.71;96934.28;10290431;28;20648;-63
2022/09/26 14:56:05;;;;;;;4.93;3.10;;;;;;;24.30;35.08;96926.13;10290943;28;20092;-63
2022/09/26 15:01:25;;;;;;;4.00;3.03;;;;;;;24.02;35.69;96935.97;10292387;28;20070;-65
2022/09/26 15:06:26;;;;;;;4.97;3.03;;;;;;;23.76;35.27;96910.41;10288604;28;20132;-65
2022/09/26 15:11:42;;;;;;;8.30;3.53;;;;;;;23.74;35.42;96933.50;10291395;28;20076;-65
2022/09/26 15:16:49;;;;;;;5.40;3.15;;;;;;;23.40;35.50;96917.19;10290724;28;20066;-65
2022/09/26 15:21:59;;;;;;;2.78;2.58;;;;;;;23.35;35.51;96914.84;10291876;28;20587;-65
2022/09/26 15:27:06;;;;;;;6.25;3.40;;;;;;;23.34;35.67;96930.81;10290487;28;20061;-65
2022/09/26 15:32:14;;;;;;;4.85;3.65;;;;;;;23.03;35.82;96890.47;10289752;28;20064;-65
2022/09/26 15:37:22;;;;;;;4.78;3.30;;;;;;;23.06;36.43;96935.25;10284282;28;20084;-65
2022/09/26 15:47:41;;;;;;;4.17;3.30;;;;;;;22.83;36.77;96922.66;10289465;28;20069;-65
2022/09/26 15:52:48;;;;;;;4.50;3.50;;;;;;;22.65;37.12;96912.28;10286460;28;20567;-65
2022/09/26 15:57:50;;;;;;;4.70;3.10;;;;;;;22.59;37.45;96920.59;10289853;28;20065;-65
2022/09/26 16:02:49;;;;;;;3.90;2.92;;;;;;;22.53;37.44;96935.06;10289069;28;20062;-65
2022/09/26 16:07:50;;;;;;;5.10;3.33;;;;;;;22.35;37.38;96923.81;10288976;28;20494;-63
2022/09/26 16:12:49;;;;;;;6.05;3.22;;;;;;;22.36;37.31;96936.06;10289297;28;20073;-63
2022/09/26 16:17:56;;;;;;;4.45;3.28;;;;;;;22.20;37.46;96923.91;10288260;28;20480;-63
2022/09/26 16:22:57;;;;;;;5.13;3.50;;;;;;;22.22;37.25;96932.59;10288100;28;20061;-63
2022/09/26 16:27:58;;;;;;;5.25;3.53;;;;;;;22.12;37.76;96927.88;10288154;28;20473;-63
2022/09/26 16:33:10;;;;;;;4.68;3.10;;;;;;;22.09;37.45;96938.63;10288943;28;20073;-64
2022/09/26 16:38:29;;;;;;;5.43;3.60;;;;;;;22.03;37.54;96928.41;10287853;28;20113;-64
2022/09/26 16:43:30;;;;;;;4.70;3.78;;;;;;;22.02;37.56;96936.47;10288711;28;20066;-64
2022/09/26 16:48:37;;;;;;;5.45;3.05;;;;;;;21.84;37.86;96909.31;10288800;28;20080;-64
2022/09/26 16:53:36;;;;;;;6.07;3.50;;;;;;;21.82;37.98;96914.69;10287914;28;20072;-63
2022/09/26 16:58:35;;;;;;;5.30;3.28;;;;;;;21.82;37.73;96927.88;10310088;28;20037;-63
2022/09/26 17:03:35;;;;;;;5.40;3.28;;;;;;;21.79;37.99;96936.00;10294060;28;20037;-63
2022/09/26 17:08:34;;;;;;;5.10;3.35;;;;;;;21.58;38.32;96918.78;10295216;28;20082;-63
2022/09/26 17:13:34;;;;;;;4.38;2.97;;;;;;;21.55;38.64;96923.31;10294685;28;20091;-63
2022/09/26 17:18:33;;;;;;;5.72;3.45;;;;;;;21.58;39.28;96948.66;10294874;28;20061;-63
2022/09/26 17:23:35;;;;;;;5.07;4.03;;;;;;;21.42;41.38;96948.69;10293751;28;20597;-63
2022/09/26 17:28:38;;;;;;;5.68;3.55;;;;;;;21.21;41.59;96957.84;10293673;28;20065;-65
2022/09/26 17:33:40;;;;;;;4.45;3.38;;;;;;;21.06;43.84;96976.22;10295666;28;20061;-66
2022/09/26 17:38:42;;;;;;;8.63;4.40;;;;;;;20.95;44.46;96980.38;10308137;28;20077;-63
2022/09/26 17:43:41;;;;;;;8.13;4.72;;;;;;;20.54;46.66;96968.53;10294090;28;20069;-63
2022/09/26 17:48:40;;;;;;;9.77;6.90;;;;;;;20.31;48.46;96985.53;10309734;28;20493;-63
2022/09/26 17:53:47;;;;;;;11.88;7.25;;;;;;;19.98;50.15;96956.53;10293766;28;20700;-64
2022/09/26 17:58:47;;;;;;;10.65;7.40;;;;;;;19.89;50.97;96954.34;10293260;28;20058;-64
2022/09/26 18:03:50;;;;;;;10.35;5.90;;;;;;;19.81;49.43;96938.94;10287126;28;20065;-64
2022/09/26 18:08:51;;;;;;;9.52;5.80;;;;;;;19.94;50.31;96960.25;10292499;28;20084;-64
2022/09/26 18:13:53;;;;;;;9.30;5.70;;;;;;;19.86;50.58;96950.94;10291145;28;20131;-62
2022/09/26 18:18:52;;;;;;;8.77;6.05;;;;;;;19.77;51.05;96948.78;10292290;28;20061;-63
2022/09/26 18:23:55;;;;;;;10.93;6.03;;;;;;;19.76;51.38;96960.22;10291627;28;20034;-63
2022/09/26 18:28:56;;;;;;;10.32;6.40;;;;;;;19.72;52.61;96963.97;10292479;28;20064;-63
2022/09/26 18:33:56;;;;;;;12.13;8.07;;;;;;;19.50;54.49;96935.19;10292194;28;20072;-63
2022/09/26 18:38:55;;;;;;;11.30;8.07;;;;;;;19.20;55.17;96917.34;10291559;28;20484;-63
2022/09/26 18:43:59;;;;;;;12.95;8.25;;;;;;;19.36;55.84;96949.03;10291467;28;20390;-63
2022/09/26 18:48:59;;;;;;;17.50;8.68;;;;;;;19.13;56.51;96910.69;10290733;28;20061;-63
2022/09/26 18:53:58;;;;;;;18.33;8.70;;;;;;;19.22;57.71;96930.44;10306581;28;20088;-63
2022/09/26 18:58:57;;;;;;;11.25;7.97;;;;;;;19.08;57.93;96917.97;10292145;28;20061;-63
2022/09/26 19:04:01;;;;;;;12.35;8.98;;;;;;;19.17;58.21;96927.19;10289548;28;20061;-63
2022/09/26 19:09:06;;;;;;;20.90;9.57;;;;;;;18.91;59.96;96921.41;10288747;28;20520;-64
2022/09/26 19:14:15;;;;;;;11.55;7.00;;;;;;;18.73;61.69;96928.38;10291032;28;20061;-63
2022/09/26 19:19:14;;;;;;;;;;;;;;;18.68;61.95;96942.63;10289046;28;20447;-63
2022/09/26 19:24:20;;;;;;;12.95;6.90;;;;;;;18.70;61.44;96930.31;10290208;28;19941;-63
2022/09/26 19:29:29;;;;;;;10.43;5.47;;;;;;;18.69;61.99;96939.97;10290622;28;20147;-64
2022/09/26 19:34:28;;;;;;;9.95;6.38;;;;;;;18.63;63.01;96932.34;10289848;28;20072;-64
2022/09/26 19:39:27;;;;;;;9.98;6.32;;;;;;;18.42;63.56;96918.41;10289099;28;20065;-63
2022/09/26 19:44:26;;;;;;;11.43;7.35;;;;;;;18.19;64.92;96909.78;10290107;28;20026;-62
2022/09/26 19:49:27;;;;;;;8.68;5.88;;;;;;;18.15;66.60;96907.38;10289650;28;20036;-62
2022/09/26 19:54:27;;;;;;;11.02;7.22;;;;;;;18.03;68.08;96924.53;10289584;28;20065;-62
2022/09/26 19:59:25;;;;;;;10.40;7.57;;;;;;;17.92;70.22;96932.91;10288492;28;20505;-62
2022/09/26 20:04:25;;;;;;;11.20;7.63;;;;;;;17.80;71.66;96922.94;10289319;28;20504;-62
2022/09/26 20:09:24;;;;;;;11.15;7.82;;;;;;;17.51;73.09;96879.53;10289306;28;20082;-63
2022/09/26 20:14:23;;;;;;;11.13;7.65;;;;;;;17.56;73.94;96916.91;10287488;28;20037;-62
2022/09/26 20:19:28;;;;;;;11.18;7.68;;;;;;;17.45;75.09;96920.00;10288330;28;20068;-63
2022/09/26 20:24:28;;;;;;;12.27;8.27;;;;;;;17.23;76.11;96909.53;10289121;28;20069;-63
2022/09/26 20:29:27;;;;;;;11.23;8.57;;;;;;;17.13;77.21;96897.72;10292606;28;20066;-64
2022/09/26 20:34:27;;;;;;;9.93;8.60;;;;;;;17.02;77.97;96892.91;10297877;28;20472;-64
2022/09/26 20:39:27;;;;;;;10.93;9.02;;;;;;;17.06;79.87;96906.75;10298741;28;20068;-64
2022/09/26 20:44:28;;;;;;;13.82;10.43;;;;;;;16.78;80.99;96883.41;10313216;28;20476;-64
2022/09/26 20:49:38;;;;;;;14.23;11.45;;;;;;;16.69;81.85;96884.59;10297744;28;20062;-64
2022/09/26 20:54:37;;;;;;;15.98;11.23;;;;;;;16.63;82.57;96883.09;10297430;28;20058;-63
2022/09/26 20:59:36;;;;;;;17.40;13.40;;;;;;;16.67;83.29;96886.44;10289962;28;20076;-65
2022/09/26 21:04:35;;;;;;;16.77;12.43;;;;;;;16.48;84.59;96855.72;10295390;28;20530;-65
2022/09/26 21:09:35;;;;;;;14.60;10.98;;;;;;;16.47;84.95;96850.56;10294307;28;20516;-65
2022/09/26 21:14:34;;;;;;;14.98;11.80;;;;;;;16.22;85.42;96806.16;10296075;28;20069;-65
2022/09/26 21:19:33;;;;;;;;;;;;;;;16.45;85.52;96827.03;10295861;28;20096;-64
2022/09/26 21:24:37;;;;;;;11.57;8.93;;;;;;;16.40;86.05;96823.75;10294297;28;20000;-64
2022/09/26 21:29:35;;;;;;;11.13;8.93;;;;;;;16.38;86.09;96822.97;10294455;28;20065;-65
2022/09/26 21:34:35;;;;;;;;;;;;;;;16.24;87.18;96801.72;10295713;28;20033;-64
2022/09/26 21:39:37;;;;;;;16.23;12.48;;;;;;;16.00;88.52;96793.03;10295765;28;19960;-64
2022/09/26 21:44:47;;;;;;;21.40;15.98;;;;;;;15.98;88.84;96781.78;10295298;28;20076;-65
2022/09/26 21:49:46;;;;;;;20.95;15.98;;;;;;;15.99;89.71;96786.94;10293165;28;20069;-64
2022/09/26 21:54:45;;;;;;;20.25;16.45;;;;;;;15.98;90.85;96790.47;10294889;28;20141;-64
2022/09/26 21:59:47;;;;;;;20.48;15.68;;;;;;;16.01;90.77;96792.13;10294418;28;20070;-64
2022/09/26 22:04:46;;;;;;;22.08;15.32;;;;;;;15.51;90.62;96700.69;10294449;28;20461;-64
2022/09/26 22:09:45;;;;;;;18.73;13.25;;;;;;;16.08;90.97;96783.97;10295172;28;20077;-64
2022/09/26 22:14:44;;;;;;;;;;;;;;;16.07;91.20;96774.41;10293983;28;20042;-64
2022/09/26 22:19:43;;;;;;;17.65;11.85;;;;;;;16.03;91.46;96771.97;10292624;28;19947;-63
2022/09/26 22:24:42;;;;;;;15.75;11.15;;;;;;;15.98;91.61;96763.47;10290430;28;20065;-62
2022/09/26 22:29:41;;;;;;;;;;;;;;;15.92;91.25;96743.59;10291092;28;20095;-63
2022/09/26 22:34:40;;;;;;;15.13;10.60;;;;;;;15.74;90.93;96723.34;10292840;28;19909;-63
2022/09/26 22:39:39;;;;;;;;;;;;;;;15.76;90.56;96743.28;10294166;28;20038;-64
2022/09/26 22:44:38;;;;;;;18.02;12.50;;;;;;;15.76;90.87;96731.97;10293285;28;20292;-64
2022/09/26 22:49:37;;;;;;;;;;;;;;;15.63;89.87;96721.16;10294245;28;20033;-62
2022/09/26 22:54:36;;;;;;;17.83;14.43;;;;;;;15.49;93.63;96705.97;10292551;28;20380;-62
2022/09/26 22:59:34;;;;;;;;;;;;;;;15.38;94.15;96700.28;10292308;28;20572;-62
2022/09/26 23:04:45;;;;;;;21.08;15.68;;;;;;;15.33;94.23;96703.06;10293029;28;19909;-62
2022/09/26 23:09:44;;;;;;;19.52;16.70;;;;;;;15.33;95.53;96707.47;10292611;28;20529;-62
2022/09/26 23:14:44;;;;;;;20.77;16.02;;;;;;;15.14;96.31;96687.22;10292245;28;20073;-62
2022/09/26 23:19:44;;;;;;;19.02;15.63;;;;;;;15.10;96.83;96690.84;10292219;28;20065;-62
2022/09/26 23:24:43;;;;;;;19.13;15.90;;;;;;;15.18;96.19;96686.19;10292302;28;20061;-62
2022/09/26 23:29:42;;;;;;;;;;;;;;;15.18;96.15;96680.97;10293146;28;20029;-62
2022/09/26 23:34:40;;;;;;;21.50;13.68;;;;;;;15.16;96.20;96684.56;10292047;28;19915;-62
2022/09/26 23:39:39;;;;;;;;;;;;;;;15.10;96.80;96666.47;10292544;28;20503;-61
2022/09/26 23:44:38;;;;;;;14.60;11.68;;;;;;;15.01;97.23;96667.66;10290711;28;20373;-61
2022/09/26 23:49:37;;;;;;;18.13;11.57;;;;;;;15.02;97.29;96665.00;10291737;28;20052;-61
2022/09/26 23:54:36;;;;;;;;;;;;;;;14.92;97.40;96660.16;10291762;28;20037;-61
2022/09/26 23:59:35;;;;;;;19.23;12.38;;;;;;;14.76;98.31;96654.63;10291297;28;19914;-61
